Time;durP1;ratioP1;P1;durP2;ratioP2;P2;SDS_P1;SDS_P2;PMS_P1;PMS_P2;Temp;Humidity;BMP_temperature;BMP_pressure;BME280_temperature;BME280_humidity;BME280_pressure;Samples;Min_cycle;Max_cycle;Signal;HPM_P1;HPM_P2
2022/07/07 04:22:33;;;;;;;16.40;6.15;;;;;;;13.13;84.52;100770.56;5109466;27;20326;-68
2022/07/07 04:24:59;;;;;;;7.60;4.60;;;;;;;13.17;83.27;100770.03;5109721;28;20074;-68
2022/07/07 04:27:24;;;;;;;9.00;4.40;;;;;;;13.21;83.37;100768.69;5109573;28;20047;-68
2022/07/07 04:29:50;;;;;;;8.82;4.07;;;;;;;13.25;82.74;100764.66;5109227;28;20396;-68
2022/07/07 04:32:15;;;;;;;6.68;4.30;;;;;;;13.34;82.05;100767.28;5109439;28;20028;-69
2022/07/07 04:34:40;;;;;;;7.10;3.75;;;;;;;13.41;81.53;100769.03;5110763;28;20399;-69
2022/07/07 04:37:06;;;;;;;6.72;3.92;;;;;;;13.50;80.68;100765.31;5109406;28;20060;-69
2022/07/07 04:39:31;;;;;;;6.32;4.10;;;;;;;13.61;79.75;100766.72;5109138;28;20036;-68
2022/07/07 04:41:57;;;;;;;6.15;3.28;;;;;;;13.68;79.37;100770.31;5109325;28;20408;-69
2022/07/07 04:44:22;;;;;;;5.22;3.53;;;;;;;13.75;78.80;100771.25;5109207;28;20044;-69
2022/07/07 04:46:48;;;;;;;4.65;3.10;;;;;;;13.86;78.14;100772.69;5109216;28;20349;-69
2022/07/07 04:49:13;;;;;;;3.92;2.92;;;;;;;13.94;77.39;100774.44;5108851;28;20047;-69
2022/07/07 04:51:39;;;;;;;4.60;3.05;;;;;;;14.04;78.13;100767.00;5109144;28;20077;-69
2022/07/07 04:54:04;;;;;;;5.72;3.10;;;;;;;14.12;77.16;100770.41;5109157;28;20153;-69
2022/07/07 04:56:30;;;;;;;6.90;4.75;;;;;;;14.23;76.57;100755.72;5108961;28;20102;-69
2022/07/07 04:58:56;;;;;;;4.15;2.80;;;;;;;14.30;76.01;100759.34;5108651;28;20044;-69
2022/07/07 05:01:21;;;;;;;5.82;3.10;;;;;;;14.40;75.86;100754.50;5108946;28;20066;-69
2022/07/07 05:03:47;;;;;;;5.88;3.33;;;;;;;14.48;75.67;100750.13;5108845;28;20515;-69
2022/07/07 05:06:13;;;;;;;4.63;3.10;;;;;;;14.56;74.72;100742.81;5108823;28;20074;-69
2022/07/07 05:08:39;;;;;;;4.07;2.70;;;;;;;14.70;74.21;100738.44;5108601;28;20036;-68
2022/07/07 05:11:05;;;;;;;4.28;2.65;;;;;;;14.82;73.37;100742.28;5108741;28;20361;-63
2022/07/07 05:13:30;;;;;;;4.72;2.83;;;;;;;14.91;72.91;100740.31;5108731;28;20472;-63
2022/07/07 05:15:56;;;;;;;8.05;3.45;;;;;;;14.95;73.12;100733.56;5108512;28;20054;-63
2022/07/07 05:18:22;;;;;;;6.75;2.97;;;;;;;15.02;73.61;100736.31;5108368;28;20032;-63
2022/07/07 05:20:47;;;;;;;4.60;2.60;;;;;;;15.07;72.82;100744.63;5108462;28;20089;-63
2022/07/07 05:23:13;;;;;;;3.33;2.63;;;;;;;15.15;71.99;100736.44;5108498;28;20450;-59
2022/07/07 05:25:38;;;;;;;3.45;2.78;;;;;;;15.17;71.17;100731.72;5108450;28;20036;-59
2022/07/07 05:28:04;;;;;;;5.28;2.42;;;;;;;15.22;71.28;100742.72;5108325;28;20032;-59
2022/07/07 05:30:30;;;;;;;6.68;2.88;;;;;;;15.26;71.25;100751.19;5108083;28;20203;-59
2022/07/07 05:32:55;;;;;;;5.30;3.10;;;;;;;15.30;71.18;100753.31;5100406;28;20044;-59
2022/07/07 05:35:20;;;;;;;6.28;3.00;;;;;;;15.36;71.86;100754.41;5094644;28;20064;-59
2022/07/07 05:37:46;;;;;;;5.53;2.85;;;;;;;15.39;71.24;100754.88;5094673;28;20044;-59
2022/07/07 05:40:12;;;;;;;3.55;2.30;;;;;;;15.46;70.41;100755.75;5094297;28;20061;-60
2022/07/07 05:42:38;;;;;;;3.25;2.70;;;;;;;15.51;70.47;100752.47;5094504;28;20039;-60
2022/07/07 05:45:04;;;;;;;5.80;2.80;;;;;;;15.58;70.01;100755.22;5094483;28;20036;-58
2022/07/07 05:47:30;;;;;;;5.25;2.88;;;;;;;15.65;69.50;100759.66;5094445;28;20074;-60
2022/07/07 05:49:56;;;;;;;5.03;2.80;;;;;;;15.76;68.54;100754.78;5094255;28;20492;-58
2022/07/07 05:52:21;;;;;;;4.20;2.50;;;;;;;15.84;68.53;100758.13;5094466;28;20085;-57
2022/07/07 05:54:47;;;;;;;4.28;2.30;;;;;;;15.95;68.27;100760.28;5094346;28;20169;-59
2022/07/07 05:57:14;;;;;;;4.63;2.50;;;;;;;16.04;67.70;100752.94;5094131;28;20493;-60
2022/07/07 05:59:40;;;;;;;2.90;2.60;;;;;;;16.07;67.49;100759.75;5093869;28;20083;-59
2022/07/07 06:02:05;;;;;;;4.28;2.53;;;;;;;16.21;66.77;100764.19;5094121;28;20048;-59
2022/07/07 06:04:31;;;;;;;5.68;2.78;;;;;;;16.26;66.82;100759.88;5094099;28;20024;-59
2022/07/07 06:06:56;;;;;;;6.30;3.05;;;;;;;16.32;66.50;100755.56;5093957;28;20097;-58
2022/07/07 06:09:23;;;;;;;3.78;2.63;;;;;;;16.39;65.74;100745.69;5093745;28;20039;-60
2022/07/07 06:11:49;;;;;;;6.27;2.73;;;;;;;16.49;65.04;100751.50;5093897;28;20035;-58
2022/07/07 06:14:14;;;;;;;7.43;3.03;;;;;;;16.65;64.80;100744.16;5093743;28;20324;-58
2022/07/07 06:16:43;;;;;;;5.38;2.80;;;;;;;16.85;64.38;100734.31;5093787;28;20072;-56
2022/07/07 06:19:10;;;;;;;5.00;2.47;;;;;;;17.03;63.17;100741.81;5093510;28;20477;-58
2022/07/07 06:21:40;;;;;;;5.95;2.67;;;;;;;17.23;63.34;100744.56;5093522;28;20066;-59
2022/07/07 06:24:07;;;;;;;6.78;3.63;;;;;;;17.35;62.74;100740.22;5093660;28;20042;-58
2022/07/07 06:26:32;;;;;;;6.90;2.53;;;;;;;17.49;61.64;100751.84;5093527;28;20058;-60
2022/07/07 06:28:58;;;;;;;5.35;2.63;;;;;;;17.55;62.15;100748.31;5093322;28;20028;-59
2022/07/07 06:31:24;;;;;;;8.65;3.40;;;;;;;17.63;61.17;100740.84;5093744;28;20508;-58
2022/07/07 06:33:49;;;;;;;6.75;3.60;;;;;;;17.69;60.39;100743.75;5093490;28;20043;-60
2022/07/07 06:36:14;;;;;;;7.22;2.45;;;;;;;17.74;61.28;100744.00;5093359;28;20031;-61
2022/07/07 06:38:40;;;;;;;5.40;2.90;;;;;;;17.82;61.06;100741.09;5091950;28;20036;-58
2022/07/07 06:41:05;;;;;;;4.25;2.63;;;;;;;17.96;60.10;100742.72;5093335;28;20040;-59
2022/07/07 06:43:31;;;;;;;7.78;2.60;;;;;;;18.03;61.56;100746.22;5091720;28;20036;-59
2022/07/07 06:45:57;;;;;;;6.53;2.85;;;;;;;18.05;61.00;100746.00;5092717;28;20044;-57
2022/07/07 06:48:23;;;;;;;4.38;2.75;;;;;;;18.18;59.33;100740.59;5081523;28;20044;-61
2022/07/07 06:50:49;;;;;;;5.97;3.63;;;;;;;18.24;59.36;100736.22;5072982;28;20020;-61
2022/07/07 06:53:15;;;;;;;7.60;3.47;;;;;;;18.26;59.77;100737.69;5072945;28;20036;-61
2022/07/07 06:55:41;;;;;;;3.72;2.40;;;;;;;18.22;59.42;100735.63;5072741;28;20043;-60
2022/07/07 06:58:07;;;;;;;10.13;2.60;;;;;;;18.23;60.85;100745.38;5072713;28;20028;-61
2022/07/07 07:00:33;;;;;;;4.40;2.67;;;;;;;18.18;59.61;100748.69;5072426;28;20075;-61
2022/07/07 07:02:58;;;;;;;6.85;3.05;;;;;;;18.10;60.31;100749.75;5072813;28;20041;-61
2022/07/07 07:05:23;;;;;;;6.32;2.75;;;;;;;18.06;60.03;100750.38;5072732;28;20033;-61
2022/07/07 07:07:49;;;;;;;6.25;3.00;;;;;;;18.02;60.38;100746.44;5072564;28;20044;-60
2022/07/07 07:10:15;;;;;;;10.85;5.05;;;;;;;17.93;60.62;100745.84;5071987;28;20195;-61
2022/07/07 07:12:40;;;;;;;6.85;2.63;;;;;;;17.95;60.92;100754.53;5072654;28;20028;-59
2022/07/07 07:15:07;;;;;;;5.22;2.60;;;;;;;17.88;60.19;100756.41;5072397;28;20123;-61
2022/07/07 07:17:32;;;;;;;5.95;3.15;;;;;;;17.82;61.11;100758.09;5072159;28;20128;-61
2022/07/07 07:19:58;;;;;;;4.30;2.63;;;;;;;17.80;61.22;100756.59;5071848;28;20107;-60
2022/07/07 07:22:24;;;;;;;10.68;3.47;;;;;;;17.75;61.54;100759.13;5070780;28;20037;-59
2022/07/07 07:24:50;;;;;;;6.85;2.92;;;;;;;17.79;61.07;100769.25;5072103;28;20033;-61
2022/07/07 07:27:16;;;;;;;4.43;2.35;;;;;;;17.74;62.07;100769.06;5071950;28;20078;-61
2022/07/07 07:29:42;;;;;;;3.78;2.63;;;;;;;17.74;61.28;100774.47;5071761;28;20068;-59
2022/07/07 07:32:07;;;;;;;6.78;2.60;;;;;;;17.76;62.57;100777.78;5072030;28;20035;-59
2022/07/07 07:34:33;;;;;;;4.45;2.40;;;;;;;17.79;61.32;100781.91;5071911;28;20506;-58
2022/07/07 07:36:58;;;;;;;7.15;3.55;;;;;;;17.92;61.22;100789.16;5071845;28;20040;-61
2022/07/07 07:39:24;;;;;;;5.75;2.83;;;;;;;17.93;60.59;100785.41;5071523;28;20041;-61
2022/07/07 07:41:49;;;;;;;6.13;2.38;;;;;;;17.90;61.94;100789.38;5071786;28;20152;-61
2022/07/07 07:45:09;;;;;;;5.13;2.33;;;;;;;17.97;61.38;100798.28;5071908;28;20127;-61
2022/07/07 07:47:00;;;;;;;3.83;2.42;;;;;;;17.94;60.70;100798.72;5071744;28;20051;-61
2022/07/07 07:49:25;;;;;;;3.63;2.35;;;;;;;18.03;61.65;100810.91;5071598;28;20040;-61
2022/07/07 07:51:51;;;;;;;5.65;2.13;;;;;;;18.04;60.99;100804.50;5071814;28;20064;-61
2022/07/07 07:54:17;;;;;;;8.20;2.50;;;;;;;18.10;61.49;100806.34;5071786;28;20028;-61
2022/07/07 07:56:42;;;;;;;5.22;2.65;;;;;;;18.09;61.69;100807.41;5071386;28;20044;-61
2022/07/07 07:59:07;;;;;;;8.48;2.10;;;;;;;18.06;61.79;100818.63;5071607;28;20024;-61
2022/07/07 08:01:33;;;;;;;4.88;2.70;;;;;;;18.07;62.35;100817.56;5071835;28;20091;-61
2022/07/07 08:03:58;;;;;;;6.35;3.33;;;;;;;17.93;62.17;100818.63;5071791;28;20081;-61
2022/07/07 08:06:24;;;;;;;4.03;2.40;;;;;;;17.88;63.35;100815.72;5071631;28;20462;-61
2022/07/07 08:08:49;;;;;;;5.22;3.13;;;;;;;17.82;63.65;100819.22;5071317;28;20093;-61
2022/07/07 08:11:15;;;;;;;5.57;2.55;;;;;;;17.79;64.27;100815.06;5070346;28;20136;-61
2022/07/07 08:13:40;;;;;;;4.20;2.60;;;;;;;17.72;64.57;100808.00;5071656;28;20048;-60
2022/07/07 08:16:06;;;;;;;4.80;2.58;;;;;;;17.63;64.53;100810.88;5071574;28;20098;-61
2022/07/07 08:18:31;;;;;;;6.45;3.00;;;;;;;17.68;65.12;100812.97;5071237;28;20047;-57
2022/07/07 08:20:57;;;;;;;6.32;2.65;;;;;;;17.63;66.63;100810.88;5071391;28;20131;-57
2022/07/07 08:23:22;;;;;;;5.25;2.58;;;;;;;17.65;66.21;100813.38;5071488;28;20036;-59
2022/07/07 08:25:47;;;;;;;4.28;2.63;;;;;;;17.61;66.13;100812.13;5071513;28;20033;-61
2022/07/07 08:28:13;;;;;;;6.85;3.40;;;;;;;17.60;66.91;100805.94;5071235;28;20392;-59
2022/07/07 08:30:38;;;;;;;5.30;3.25;;;;;;;17.62;67.00;100805.72;5071240;28;20120;-60
2022/07/07 08:33:05;;;;;;;5.55;3.20;;;;;;;17.60;66.39;100803.22;5071475;28;20040;-61
2022/07/07 08:35:30;;;;;;;5.57;2.58;;;;;;;17.54;66.99;100798.66;5071422;28;20036;-61
2022/07/07 08:37:56;;;;;;;5.50;3.33;;;;;;;17.60;66.64;100791.59;5071123;28;20040;-61
2022/07/07 08:40:22;;;;;;;5.45;3.28;;;;;;;17.71;66.41;100788.34;5070982;28;20543;-61
2022/07/07 08:42:48;;;;;;;5.88;3.10;;;;;;;17.74;66.87;100784.41;5071287;28;20075;-61
2022/07/07 08:45:13;;;;;;;5.95;2.85;;;;;;;17.87;65.65;100776.31;5071220;28;20044;-61
2022/07/07 08:47:39;;;;;;;5.32;2.63;;;;;;;17.97;65.75;100765.94;5071213;28;20071;-59
2022/07/07 08:50:06;;;;;;;5.60;2.53;;;;;;;18.18;65.38;100752.22;5070980;28;20068;-61
2022/07/07 08:52:31;;;;;;;6.93;3.63;;;;;;;18.40;64.73;100751.97;5071062;28;20107;-60
2022/07/07 08:55:00;;;;;;;5.15;3.08;;;;;;;18.70;63.60;100739.63;5071261;28;20541;-61
2022/07/07 08:57:25;;;;;;;8.10;3.58;;;;;;;18.89;62.25;100737.03;5071112;28;20044;-61
2022/07/07 08:59:51;;;;;;;5.60;2.88;;;;;;;19.03;62.15;100735.91;5070947;28;20044;-61
2022/07/07 09:02:16;;;;;;;7.95;3.28;;;;;;;19.19;61.48;100730.00;5071138;28;20054;-61
2022/07/07 09:04:42;;;;;;;10.55;2.85;;;;;;;19.43;60.27;100741.91;5071202;28;20037;-61
2022/07/07 09:07:07;;;;;;;5.65;2.92;;;;;;;19.74;60.32;100746.44;5071126;28;20481;-60
2022/07/07 09:09:36;;;;;;;5.95;3.20;;;;;;;20.03;60.28;100763.03;5074781;28;20107;-59
2022/07/07 09:12:03;;;;;;;4.30;2.83;;;;;;;20.41;57.43;100754.72;5074772;28;20039;-60
2022/07/07 09:14:39;;;;;;;7.60;2.75;;;;;;;20.72;57.86;100756.44;5073610;28;20494;-61
2022/07/07 09:17:26;;;;;;;4.93;2.53;;;;;;;20.99;58.39;100764.22;5074749;28;20041;-61
2022/07/07 09:20:06;;;;;;;7.93;3.05;;;;;;;21.09;56.65;100759.09;5074416;28;20041;-61
2022/07/07 09:22:49;;;;;;;8.90;3.30;;;;;;;21.05;56.09;100777.66;5074513;28;20041;-61
2022/07/07 09:25:16;;;;;;;14.10;3.00;;;;;;;20.97;57.50;100775.28;5075067;28;20044;-60
2022/07/07 09:28:05;;;;;;;8.50;2.80;;;;;;;20.82;58.45;100775.69;5074476;28;20116;-58
2022/07/07 09:30:41;;;;;;;3.95;2.50;;;;;;;20.73;58.09;100771.63;5074286;28;20393;-59
2022/07/07 09:33:09;;;;;;;7.30;2.85;;;;;;;20.61;57.85;100768.06;5074319;28;20036;-61
2022/07/07 09:38:24;;;;;;;6.88;3.10;;;;;;;20.58;58.58;100757.69;5074088;28;20047;-61
2022/07/07 09:41:03;;;;;;;9.90;2.83;;;;;;;20.56;58.34;100765.19;5072717;28;20097;-61
2022/07/07 09:43:32;;;;;;;7.07;2.78;;;;;;;20.54;59.82;100772.72;5074248;28;20039;-61
2022/07/07 09:46:17;;;;;;;5.75;2.95;;;;;;;20.63;59.06;100757.00;5074182;28;20032;-60
2022/07/07 09:48:59;;;;;;;5.55;2.35;;;;;;;20.59;58.73;100737.66;5073747;28;20170;-60
2022/07/07 09:51:27;;;;;;;5.80;2.65;;;;;;;20.64;58.73;100737.00;5074109;28;20047;-58
2022/07/07 09:53:55;;;;;;;4.78;2.40;;;;;;;20.76;58.78;100735.19;5073983;28;20090;-60
2022/07/07 09:56:22;;;;;;;3.58;2.45;;;;;;;20.86;58.66;100738.16;5073939;28;20438;-61
2022/07/07 09:58:48;;;;;;;5.93;3.00;;;;;;;20.88;60.75;100725.22;5073847;28;20089;-61
2022/07/07 10:01:16;;;;;;;4.90;2.63;;;;;;;20.99;61.81;100731.72;5073966;28;20600;-60
2022/07/07 10:03:42;;;;;;;8.35;2.60;;;;;;;21.06;59.61;100735.16;5073988;28;20393;-61
2022/07/07 10:06:09;;;;;;;7.28;3.20;;;;;;;21.05;60.55;100747.88;5073838;28;20047;-60
2022/07/07 10:08:41;;;;;;;5.90;3.20;;;;;;;20.85;58.88;100758.97;5073515;28;20032;-61
2022/07/07 10:11:09;;;;;;;7.85;2.60;;;;;;;20.75;58.98;100769.53;5073771;28;20063;-60
2022/07/07 10:13:37;;;;;;;4.88;2.95;;;;;;;20.70;60.01;100769.41;5073769;28;20071;-61
2022/07/07 10:16:05;;;;;;;5.20;2.42;;;;;;;20.80;59.53;100783.22;5073630;28;20493;-61
2022/07/07 10:18:31;;;;;;;8.98;3.00;;;;;;;20.90;59.45;100776.44;5073235;28;20032;-59
2022/07/07 10:20:57;;;;;;;10.45;2.83;;;;;;;20.92;59.48;100768.91;5073421;28;20135;-61
2022/07/07 10:23:23;;;;;;;4.25;2.80;;;;;;;20.90;59.11;100774.56;5073586;28;20131;-59
2022/07/07 10:26:05;;;;;;;6.50;2.65;;;;;;;20.85;60.20;100771.69;5073470;28;20037;-60
2022/07/07 10:28:59;;;;;;;5.78;2.80;;;;;;;21.03;59.10;100771.66;5073084;28;20048;-59
2022/07/07 10:31:29;;;;;;;5.25;2.63;;;;;;;21.08;59.81;100784.53;5073373;28;20101;-61
2022/07/07 10:34:03;;;;;;;4.45;2.90;;;;;;;21.05;60.56;100784.97;5073339;28;20060;-61
2022/07/07 10:36:47;;;;;;;5.20;3.10;;;;;;;21.03;61.06;100777.09;5073720;28;20051;-60
2022/07/07 10:39:14;;;;;;;5.70;2.75;;;;;;;20.96;59.88;100780.94;5072922;28;20054;-56
2022/07/07 10:42:07;;;;;;;6.75;3.13;;;;;;;20.98;60.63;100779.66;5073110;28;20071;-58
2022/07/07 10:44:35;;;;;;;4.43;3.22;;;;;;;20.98;60.92;100784.25;5054593;28;20418;-60
2022/07/07 10:47:23;;;;;;;6.28;2.97;;;;;;;20.97;62.00;100779.88;5072974;28;20033;-59
2022/07/07 10:49:51;;;;;;;5.25;3.78;;;;;;;20.97;61.34;100777.19;5072664;28;20064;-60
2022/07/07 10:52:19;;;;;;;4.88;2.90;;;;;;;20.92;62.19;100780.56;5073047;28;20032;-59
2022/07/07 10:54:48;;;;;;;9.38;3.13;;;;;;;20.89;63.03;100785.63;5073018;28;20044;-58
2022/07/07 10:57:44;;;;;;;6.53;2.83;;;;;;;21.00;60.33;100782.97;5054992;28;20040;-58
2022/07/07 11:00:13;;;;;;;8.63;3.28;;;;;;;20.93;61.06;100784.09;5068094;28;20416;-59
2022/07/07 11:02:42;;;;;;;6.95;2.88;;;;;;;20.91;61.54;100778.09;5072980;28;20532;-56
2022/07/07 11:05:14;;;;;;;5.32;3.15;;;;;;;20.83;61.93;100781.94;5072833;28;20040;-56
2022/07/07 11:07:40;;;;;;;8.32;3.03;;;;;;;20.85;62.77;100775.22;5072477;28;20055;-59
2022/07/07 11:10:10;;;;;;;6.28;3.20;;;;;;;20.95;61.94;100779.28;5072294;28;20795;-59
2022/07/07 11:12:46;;;;;;;9.45;3.63;;;;;;;20.96;63.07;100770.94;5072542;28;20174;-59
2022/07/07 11:15:18;;;;;;;5.10;3.53;;;;;;;21.04;62.78;100775.19;5072442;28;20036;-59
2022/07/07 11:17:49;;;;;;;4.07;2.70;;;;;;;21.16;63.40;100769.84;5072418;28;20040;-60
2022/07/07 11:20:16;;;;;;;6.93;2.85;;;;;;;21.24;63.13;100772.22;5072033;28;20408;-60
2022/07/07 11:22:47;;;;;;;5.00;2.63;;;;;;;21.32;61.76;100761.06;5072264;28;20028;-60
2022/07/07 11:25:13;;;;;;;3.47;2.22;;;;;;;21.31;61.79;100767.56;5072280;28;20037;-56
2022/07/07 11:27:39;;;;;;;4.78;2.58;;;;;;;21.32;62.08;100764.63;5072220;28;20041;-58
2022/07/07 11:30:05;;;;;;;6.75;2.20;;;;;;;21.42;62.05;100771.34;5071448;28;20029;-59
2022/07/07 11:32:39;;;;;;;6.00;2.67;;;;;;;21.55;61.24;100766.56;5072309;28;20473;-53
2022/07/07 11:35:06;;;;;;;10.00;2.80;;;;;;;21.65;61.22;100763.28;5072086;28;20122;-60
2022/07/07 11:37:33;;;;;;;;;;;;;;;21.74;61.82;100777.31;5072388;28;20523;-60
2022/07/07 11:39:59;;;;;;;6.33;2.70;;;;;;;21.61;60.05;100770.22;5071820;28;19921;-58
2022/07/07 11:42:34;;;;;;;3.72;2.30;;;;;;;21.55;61.29;100771.16;5071972;28;20429;-59
2022/07/07 11:45:00;;;;;;;4.03;2.60;;;;;;;21.40;60.87;100769.72;5072106;28;20041;-60
2022/07/07 11:47:26;;;;;;;4.72;2.58;;;;;;;21.28;60.95;100774.28;5070836;28;20042;-59
2022/07/07 11:49:54;;;;;;;6.65;3.22;;;;;;;21.33;61.98;100776.28;5071729;28;20094;-56
2022/07/07 11:52:22;;;;;;;4.07;2.85;;;;;;;21.36;61.56;100782.06;5071944;28;20036;-59
2022/07/07 11:54:48;;;;;;;4.25;2.03;;;;;;;21.37;61.46;100775.56;5071935;28;20082;-58
2022/07/07 11:57:31;;;;;;;5.60;2.40;;;;;;;21.34;60.84;100776.06;5071850;28;20037;-59
2022/07/07 12:00:12;;;;;;;3.45;2.58;;;;;;;21.41;60.85;100778.66;5071548;28;20047;-59
2022/07/07 12:02:38;;;;;;;4.97;2.28;;;;;;;21.30;60.83;100784.88;5071625;28;20036;-59
2022/07/07 12:05:04;;;;;;;3.58;2.60;;;;;;;21.31;61.09;100783.81;5071842;28;20067;-59
2022/07/07 12:07:30;;;;;;;4.05;2.40;;;;;;;21.32;62.12;100791.72;5071707;28;20127;-59
2022/07/07 12:09:56;;;;;;;3.25;2.20;;;;;;;21.34;62.44;100795.03;5071466;28;20190;-58
2022/07/07 12:12:21;;;;;;;4.72;2.17;;;;;;;21.42;61.31;100795.75;5071744;28;20032;-57
2022/07/07 12:14:47;;;;;;;3.47;2.42;;;;;;;21.48;62.16;100801.06;5071747;28;20060;-59
2022/07/07 12:17:12;;;;;;;5.82;2.45;;;;;;;21.58;62.75;100792.34;5071617;28;20044;-58
2022/07/07 12:19:48;;;;;;;5.45;2.13;;;;;;;21.61;63.13;100800.88;5071528;28;20037;-58
2022/07/07 12:22:13;;;;;;;4.53;2.30;;;;;;;21.79;61.40;100799.97;5071575;28;20041;-55
2022/07/07 12:24:39;;;;;;;4.63;2.20;;;;;;;21.93;61.15;100808.69;5071584;28;20029;-60
2022/07/07 12:27:16;;;;;;;5.50;2.38;;;;;;;21.91;61.63;100798.09;5071420;28;20036;-58
2022/07/07 12:29:58;;;;;;;4.82;2.10;;;;;;;22.03;59.78;100800.78;5071313;28;20036;-59
2022/07/07 12:32:24;;;;;;;2.55;2.03;;;;;;;22.14;61.86;100804.59;5071473;28;20056;-56
2022/07/07 12:34:49;;;;;;;3.35;2.30;;;;;;;22.47;60.70;100815.66;5071462;28;20476;-56
2022/07/07 12:37:15;;;;;;;4.28;2.10;;;;;;;22.69;58.78;100806.88;5070072;28;20048;-55
2022/07/07 12:39:43;;;;;;;3.42;2.30;;;;;;;22.95;57.88;100806.41;5070992;28;20037;-57
2022/07/07 12:42:09;;;;;;;4.05;2.33;;;;;;;22.98;58.83;100802.38;5071519;28;20032;-57
2022/07/07 12:44:35;;;;;;;3.72;2.40;;;;;;;22.91;58.40;100798.97;5075467;28;20134;-57
2022/07/07 12:47:01;;;;;;;3.22;2.35;;;;;;;22.70;57.84;100797.69;5075298;28;20342;-57
2022/07/07 12:49:27;;;;;;;2.75;2.00;;;;;;;22.62;57.65;100801.59;5075093;28;20040;-55
2022/07/07 12:51:55;;;;;;;4.95;2.53;;;;;;;22.28;58.38;100800.59;5074121;28;20036;-57
2022/07/07 12:54:26;;;;;;;3.45;2.08;;;;;;;22.15;59.09;100795.41;5073936;28;20686;-57
2022/07/07 12:57:00;;;;;;;3.58;2.15;;;;;;;22.10;59.82;100798.81;5075083;28;20036;-57
2022/07/07 12:59:26;;;;;;;5.70;2.28;;;;;;;21.99;60.85;100796.09;5074798;28;20432;-55
2022/07/07 13:01:53;;;;;;;3.55;2.00;;;;;;;22.05;61.43;100804.09;5075007;28;20040;-57
2022/07/07 13:04:20;;;;;;;3.88;2.50;;;;;;;21.92;60.96;100804.34;5075015;28;20036;-55
2022/07/07 13:06:45;;;;;;;2.70;2.10;;;;;;;21.88;62.75;100814.81;5074932;28;20437;-53
2022/07/07 13:09:12;;;;;;;4.03;2.25;;;;;;;21.62;63.33;100810.63;5074404;28;20060;-56
2022/07/07 13:11:37;;;;;;;3.95;2.25;;;;;;;21.56;63.94;100818.88;5074822;28;20507;-51
2022/07/07 13:14:02;;;;;;;3.00;2.10;;;;;;;21.44;63.23;100815.31;5074741;28;20120;-56
2022/07/07 13:16:28;;;;;;;2.50;1.98;;;;;;;21.48;63.38;100813.78;5073628;28;20435;-56
2022/07/07 13:18:53;;;;;;;3.20;2.28;;;;;;;21.54;63.41;100816.41;5074429;28;20079;-56
2022/07/07 13:21:19;;;;;;;3.95;2.25;;;;;;;21.64;64.08;100815.81;5074557;28;20044;-54
2022/07/07 13:23:44;;;;;;;6.35;2.60;;;;;;;22.18;61.98;100816.66;5074746;28;20039;-53
2022/07/07 13:26:12;;;;;;;5.07;2.55;;;;;;;22.52;60.87;100817.69;5074875;28;20037;-57
2022/07/07 13:28:38;;;;;;;3.85;2.40;;;;;;;22.63;59.17;100825.00;5074287;28;20135;-54
2022/07/07 13:31:03;;;;;;;5.20;2.33;;;;;;;22.78;58.74;100820.94;5074484;28;20051;-57
2022/07/07 13:33:29;;;;;;;4.05;2.15;;;;;;;22.81;58.58;100820.44;5074414;28;20028;-57
2022/07/07 13:35:55;;;;;;;4.28;2.30;;;;;;;22.81;57.79;100829.41;5074252;28;20085;-55
2022/07/07 13:38:21;;;;;;;7.20;2.20;;;;;;;22.79;58.33;100828.84;5074276;28;20044;-57
2022/07/07 13:40:46;;;;;;;2.65;2.17;;;;;;;22.84;58.45;100839.00;5074158;28;20120;-56
2022/07/07 13:43:12;;;;;;;5.18;2.47;;;;;;;22.80;59.54;100837.81;5074376;28;20147;-59
2022/07/07 13:45:37;;;;;;;4.03;2.45;;;;;;;22.89;59.73;100839.97;5074217;28;20123;-59
2022/07/07 13:48:03;;;;;;;4.95;1.98;;;;;;;23.24;58.94;100844.44;5074355;28;20044;-60
2022/07/07 13:50:30;;;;;;;3.28;1.80;;;;;;;23.37;57.46;100846.88;5073983;28;20040;-59
2022/07/07 13:52:55;;;;;;;3.78;2.13;;;;;;;23.50;57.26;100852.00;5073851;28;20135;-60
2022/07/07 13:55:21;;;;;;;3.53;1.95;;;;;;;23.52;57.42;100840.88;5073885;28;20032;-57
2022/07/07 13:57:47;;;;;;;2.78;2.00;;;;;;;23.62;55.12;100829.41;5073985;28;20523;-58
2022/07/07 14:00:13;;;;;;;1.73;1.52;;;;;;;23.66;55.88;100828.66;5073714;28;20044;-57
2022/07/07 14:02:40;;;;;;;3.40;1.73;;;;;;;23.58;54.69;100847.22;5072742;28;20044;-57
2022/07/07 14:05:06;;;;;;;1.98;1.40;;;;;;;23.45;56.33;100854.63;5073802;28;20044;-57
2022/07/07 14:07:32;;;;;;;2.35;1.50;;;;;;;23.23;54.93;100850.94;5073764;28;20029;-56
2022/07/07 14:09:59;;;;;;;3.28;1.50;;;;;;;23.02;55.05;100855.97;5073397;28;20119;-57
2022/07/07 14:12:27;;;;;;;2.50;1.40;;;;;;;22.98;55.19;100865.66;5073676;28;20024;-56
2022/07/07 14:14:52;;;;;;;1.77;1.05;;;;;;;22.06;57.98;100872.75;5073479;28;20287;-55
2022/07/07 14:17:18;;;;;;;3.40;1.50;;;;;;;21.75;59.41;100865.72;5073374;28;20033;-56
2022/07/07 14:19:43;;;;;;;3.10;1.30;;;;;;;21.82;60.15;100867.25;5073050;28;20032;-56
2022/07/07 14:22:09;;;;;;;1.88;1.30;;;;;;;21.57;60.39;100878.25;5073330;28;20052;-57
2022/07/07 14:24:35;;;;;;;2.17;1.17;;;;;;;21.41;60.24;100870.78;5073413;28;20033;-57
2022/07/07 14:27:01;;;;;;;1.40;1.20;;;;;;;21.45;59.81;100876.56;5073300;28;20056;-57
2022/07/07 14:29:26;;;;;;;1.48;1.30;;;;;;;21.35;59.74;100874.41;5073016;28;20547;-58
2022/07/07 14:31:51;;;;;;;2.10;1.10;;;;;;;21.38;59.89;100869.34;5073248;28;20064;-58
2022/07/07 14:34:17;;;;;;;3.35;1.23;;;;;;;21.26;59.04;100868.47;5073123;28;20036;-58
2022/07/07 14:36:43;;;;;;;2.58;1.55;;;;;;;21.33;59.61;100876.53;5073098;28;20135;-58
2022/07/07 14:39:08;;;;;;;1.30;1.20;;;;;;;21.39;59.03;100879.16;5072869;28;20123;-56
2022/07/07 14:41:36;;;;;;;2.03;1.13;;;;;;;21.35;58.72;100877.13;5072848;28;20028;-59
2022/07/07 14:44:02;;;;;;;;;;;;;;;21.41;58.71;100881.63;5073357;28;20394;-57
2022/07/07 14:46:27;;;;;;;1.48;1.10;;;;;;;21.44;58.45;100881.16;5072702;28;19916;-56
2022/07/07 14:48:52;;;;;;;1.65;1.05;;;;;;;21.30;55.79;100883.22;5072544;28;20033;-57
2022/07/07 14:51:18;;;;;;;2.47;0.90;;;;;;;21.43;56.51;100879.50;5072747;28;20450;-56
2022/07/07 14:53:43;;;;;;;3.60;1.20;;;;;;;21.53;55.64;100881.69;5072711;28;20036;-59
2022/07/07 14:56:09;;;;;;;2.22;1.20;;;;;;;21.59;55.37;100878.06;5072637;28;20036;-59
2022/07/07 14:58:36;;;;;;;1.35;1.00;;;;;;;21.79;54.60;100888.59;5072294;28;20469;-57
2022/07/07 15:01:01;;;;;;;2.25;1.10;;;;;;;21.99;55.49;100888.31;5072519;28;20032;-58
2022/07/07 15:03:27;;;;;;;1.10;1.00;;;;;;;22.20;51.51;100880.44;5072394;28;20044;-59
2022/07/07 15:05:53;;;;;;;2.03;1.38;;;;;;;22.32;49.99;100885.91;5071616;28;20041;-59
2022/07/07 15:08:18;;;;;;;1.92;1.20;;;;;;;22.62;51.34;100896.63;5072343;28;20181;-58
2022/07/07 15:10:44;;;;;;;1.33;1.10;;;;;;;22.76;51.07;100894.50;5072364;28;20043;-58
2022/07/07 15:13:09;;;;;;;4.38;1.30;;;;;;;22.98;48.92;100897.44;5072954;28;20430;-59
2022/07/07 15:15:35;;;;;;;2.40;0.80;;;;;;;23.03;49.00;100897.56;5072298;28;20040;-59
2022/07/07 15:18:00;;;;;;;0.77;0.77;;;;;;;22.91;49.20;100886.72;5072272;28;20079;-58
2022/07/07 15:20:25;;;;;;;0.90;0.90;;;;;;;22.98;47.53;100898.25;5071947;28;20047;-58
2022/07/07 15:22:51;;;;;;;1.40;1.10;;;;;;;23.04;48.66;100901.09;5072248;28;20086;-58
2022/07/07 15:25:16;;;;;;;1.00;1.00;;;;;;;22.91;48.75;100889.44;5072028;28;20094;-59
2022/07/07 15:27:42;;;;;;;2.70;1.27;;;;;;;22.92;47.91;100892.97;5072142;28;20082;-59
2022/07/07 15:30:08;;;;;;;2.92;1.40;;;;;;;22.92;49.17;100907.38;5071785;28;20040;-57
2022/07/07 15:32:34;;;;;;;1.65;1.02;;;;;;;22.90;49.10;100903.25;5071927;28;20146;-58
2022/07/07 15:34:59;;;;;;;1.10;1.00;;;;;;;22.88;48.91;100906.19;5072068;28;20036;-59
2022/07/07 15:37:25;;;;;;;2.40;0.90;;;;;;;22.81;49.50;100913.59;5071867;28;20076;-58
2022/07/07 15:39:51;;;;;;;1.85;1.38;;;;;;;22.65;49.00;100904.31;5071677;28;20115;-59
2022/07/07 15:42:20;;;;;;;1.50;1.10;;;;;;;22.62;49.43;100909.38;5071754;28;20481;-58
2022/07/07 15:44:47;;;;;;;2.70;1.20;;;;;;;22.64;50.07;100908.09;5071796;28;20044;-58
2022/07/07 15:47:13;;;;;;;2.17;1.20;;;;;;;22.59;48.61;100915.28;5071761;28;20036;-59
2022/07/07 15:49:38;;;;;;;2.67;1.15;;;;;;;22.56;49.73;100904.88;5071479;28;20041;-59